Time;durP1;ratioP1;P1;durP2;ratioP2;P2;SDS_P1;SDS_P2;PMS_P1;PMS_P2;Temp;Humidity;BMP_temperature;BMP_pressure;BME280_temperature;BME280_humidity;BME280_pressure;Samples;Min_cycle;Max_cycle;Signal;HPM_P1;HPM_P2
2022/11/15 00:01:58;;;;;;;98.22;60.90;;;5.10;99.90;;;;;;5053987;28;20212;-85
2022/11/15 00:04:34;;;;;;;104.05;58.33;;;5.40;99.90;;;;;;5046475;28;20323;-84
2022/11/15 00:07:03;;;;;;;94.55;57.85;;;5.10;99.90;;;;;;5060982;28;20280;-84
2022/11/15 00:09:30;;;;;;;96.38;59.75;;;5.20;99.90;;;;;;5047003;28;20208;-84
2022/11/15 00:11:58;;;;;;;93.43;55.97;;;5.60;99.90;;;;;;5048460;28;20197;-85
2022/11/15 00:14:30;;;;;;;87.65;56.45;;;5.20;99.90;;;;;;5045393;28;20205;-85
2022/11/15 00:16:57;;;;;;;93.80;56.17;;;5.10;99.90;;;;;;5058452;28;20228;-82
2022/11/15 00:19:25;;;;;;;85.43;55.03;;;5.10;99.90;;;;;;5043444;28;20275;-85
2022/11/15 00:21:55;;;;;;;89.32;57.40;;;5.10;99.90;;;;;;5042922;28;20256;-84
2022/11/15 00:24:27;;;;;;;100.47;56.47;;;5.00;99.90;;;;;;5043813;28;20672;-84
2022/11/15 00:26:55;;;;;;;88.75;54.13;;;5.10;99.90;;;;;;5043348;28;20492;-85
2022/11/15 00:29:23;;;;;;;81.72;53.70;;;5.00;99.90;;;;;;5043198;28;20247;-84
2022/11/15 00:31:50;;;;;;;78.25;48.55;;;5.10;99.90;;;;;;5045285;28;20196;-83
2022/11/15 00:34:19;;;;;;;82.70;54.33;;;5.00;99.90;;;;;;5057168;28;20197;-84
2022/11/15 00:36:48;;;;;;;78.82;50.22;;;4.90;99.90;;;;;;5048638;28;20497;-83
2022/11/15 00:39:33;;;;;;;82.95;50.90;;;4.90;99.90;;;;;;5044681;28;20243;-82
2022/11/15 00:42:02;;;;;;;90.10;48.83;;;4.90;99.90;;;;;;5045379;28;20193;-83
2022/11/15 00:44:29;;;;;;;78.68;48.35;;;5.00;99.90;;;;;;5042857;28;20200;-83
2022/11/15 00:47:01;;;;;;;89.32;52.78;;;5.00;99.90;;;;;;5042100;28;20213;-83
2022/11/15 00:49:29;;;;;;;75.40;50.05;;;5.00;99.90;;;;;;5049819;28;20201;-83
2022/11/15 00:51:57;;;;;;;77.95;49.10;;;4.90;99.90;;;;;;5042658;28;20212;-84
2022/11/15 00:54:32;;;;;;;80.97;50.33;;;4.90;99.90;;;;;;5044145;28;20200;-84
2022/11/15 00:57:05;;;;;;;78.15;49.50;;;4.80;99.90;;;;;;5042592;28;20255;-83
2022/11/15 00:59:33;;;;;;;83.20;47.88;;;4.70;99.90;;;;;;5041375;28;20345;-83
2022/11/15 01:02:00;;;;;;;80.93;50.65;;;4.70;99.90;;;;;;5041153;28;20270;-83
2022/11/15 01:04:28;;;;;;;84.43;51.75;;;4.70;99.90;;;;;;5042923;28;20217;-83
2022/11/15 01:06:58;;;;;;;82.97;49.60;;;4.70;99.90;;;;;;5041406;28;20467;-84
2022/11/15 01:09:25;;;;;;;82.00;50.28;;;4.70;99.90;;;;;;5044983;28;20244;-82
2022/11/15 01:11:53;;;;;;;103.85;54.40;;;4.70;99.90;;;;;;5056054;28;20208;-81
2022/11/15 01:14:20;;;;;;;93.25;53.30;;;4.60;99.90;;;;;;5055787;28;20205;-81
2022/11/15 01:16:51;;;;;;;81.22;49.58;;;4.60;99.90;;;;;;5044337;28;20192;-83
2022/11/15 01:19:20;;;;;;;78.65;49.10;;;4.60;99.90;;;;;;5045995;28;20205;-83
2022/11/15 01:21:51;;;;;;;80.25;48.15;;;4.40;99.90;;;;;;5057091;28;20228;-82
2022/11/15 01:24:20;;;;;;;86.15;49.83;;;4.60;99.90;;;;;;5040784;28;20201;-83
2022/11/15 01:26:48;;;;;;;83.25;50.55;;;4.60;99.90;;;;;;5038860;28;20441;-84
2022/11/15 01:29:15;;;;;;;91.90;49.45;;;4.40;99.90;;;;;;5043294;28;20196;-83
2022/11/15 01:31:42;;;;;;;98.10;51.80;;;4.50;99.90;;;;;;5045967;28;20425;-83
2022/11/15 01:34:09;;;;;;;80.47;49.85;;;4.60;99.90;;;;;;5044293;28;20428;-82
2022/11/15 01:36:37;;;;;;;83.93;51.38;;;4.60;99.90;;;;;;5044389;28;20209;-83
2022/11/15 01:39:04;;;;;;;79.10;48.83;;;4.50;99.90;;;;;;5042812;28;20233;-82
2022/11/15 01:41:33;;;;;;;84.22;50.65;;;4.50;99.90;;;;;;5055361;28;20244;-83
2022/11/15 01:44:37;;;;;;;75.68;47.30;;;4.40;99.90;;;;;;5051366;28;20519;-83
2022/11/15 01:47:19;;;;;;;82.57;49.05;;;4.30;99.90;;;;;;5055121;28;20208;-86
2022/11/15 01:49:50;;;;;;;91.15;49.30;;;4.30;99.90;;;;;;5048477;28;20189;-84
2022/11/15 01:52:20;;;;;;;80.38;51.00;;;4.30;99.90;;;;;;5059014;28;20197;-84
2022/11/15 01:54:53;;;;;;;70.07;45.75;;;4.30;99.90;;;;;;5071486;28;20196;-84
2022/11/15 01:57:21;;;;;;;86.47;51.97;;;4.10;99.90;;;;;;5042636;28;20224;-86
2022/11/15 01:59:48;;;;;;;75.95;47.88;;;4.20;99.90;;;;;;5054734;28;20201;-84
2022/11/15 02:02:15;;;;;;;77.43;50.53;;;4.20;99.90;;;;;;5043100;28;20205;-85
2022/11/15 02:04:46;;;;;;;94.50;52.22;;;4.00;99.90;;;;;;5043575;28;20240;-86
2022/11/15 02:07:17;;;;;;;80.40;48.72;;;4.10;99.90;;;;;;5042449;28;20221;-84
2022/11/15 02:09:47;;;;;;;88.35;52.03;;;4.10;99.90;;;;;;5043020;28;20436;-86
2022/11/15 02:12:18;;;;;;;84.18;50.67;;;4.00;99.90;;;;;;5043442;28;20200;-83
2022/11/15 02:14:51;;;;;;;85.93;51.95;;;4.10;99.90;;;;;;5038431;28;20456;-84
2022/11/15 02:17:46;;;;;;;90.60;52.10;;;4.20;99.90;;;;;;5057939;28;20363;-83
2022/11/15 02:20:36;;;;;;;76.55;48.80;;;4.00;99.90;;;;;;5052508;28;20259;-87
2022/11/15 02:23:30;;;;;;;77.80;48.70;;;4.10;99.90;;;;;;5043264;28;20198;-84
2022/11/15 02:26:16;;;;;;;77.65;49.90;;;4.20;99.90;;;;;;5043359;28;20189;-85
2022/11/15 02:29:01;;;;;;;79.03;46.40;;;4.20;99.90;;;;;;5042327;28;20204;-85
2022/11/15 02:32:01;;;;;;;76.07;48.45;;;4.10;99.90;;;;;;5042357;28;20201;-84
2022/11/15 02:34:40;;;;;;;80.53;49.05;;;4.10;99.90;;;;;;5021731;28;20217;-85
2022/11/15 02:37:25;;;;;;;87.88;47.15;;;3.80;99.90;;;;;;5039769;28;20280;-83
2022/11/15 02:40:11;;;;;;;82.05;49.92;;;3.90;99.90;;;;;;5042013;28;20193;-85
2022/11/15 02:45:53;;;;;;;74.07;47.97;;;4.00;99.90;;;;;;5041728;28;20213;-84
2022/11/15 02:48:23;;;;;;;72.93;46.70;;;3.90;99.90;;;;;;5057577;28;20227;-82
2022/11/15 02:50:51;;;;;;;74.03;47.00;;;4.00;99.90;;;;;;5042081;28;20690;-84
2022/11/15 02:53:23;;;;;;;81.30;48.45;;;3.80;99.90;;;;;;5042685;28;20209;-83
2022/11/15 02:55:51;;;;;;;80.68;49.40;;;3.80;99.90;;;;;;5041698;28;20204;-89
2022/11/15 02:58:37;;;;;;;81.32;46.53;;;3.80;99.90;;;;;;5052028;28;20212;-85
2022/11/15 03:01:34;;;;;;;83.63;49.63;;;3.90;99.90;;;;;;5038755;28;20224;-84
2022/11/15 03:04:16;;;;;;;80.80;46.40;;;4.00;99.90;;;;;;5033341;28;20257;-81
2022/11/15 03:06:57;;;;;;;77.22;46.90;;;4.00;99.90;;;;;;5052772;28;20499;-82
2022/11/15 03:09:24;;;;;;;77.43;46.33;;;4.10;99.90;;;;;;5043331;28;20205;-82
2022/11/15 03:11:59;;;;;;;89.63;49.42;;;4.10;99.90;;;;;;5050497;28;20220;-82
2022/11/15 03:14:42;;;;;;;79.47;47.00;;;3.90;99.90;;;;;;5055094;28;20204;-83
2022/11/15 03:17:35;;;;;;;87.05;47.65;;;4.00;99.90;;;;;;5035379;28;20263;-83
2022/11/15 03:20:05;;;;;;;81.05;49.72;;;4.10;99.90;;;;;;5043103;28;20243;-82
2022/11/15 03:22:39;;;;;;;82.38;48.22;;;4.10;99.90;;;;;;5040169;28;20205;-82
2022/11/15 03:25:09;;;;;;;88.35;51.42;;;4.00;99.90;;;;;;5044545;28;20251;-84
2022/11/15 03:27:41;;;;;;;77.43;47.88;;;4.00;99.90;;;;;;5057663;28;20212;-83
2022/11/15 03:30:24;;;;;;;81.55;45.75;;;4.10;99.90;;;;;;5038373;28;20505;-83
2022/11/15 03:32:54;;;;;;;70.80;46.22;;;4.10;99.90;;;;;;5045369;28;20248;-83
2022/11/15 03:35:25;;;;;;;87.78;47.17;;;3.90;99.90;;;;;;5060381;28;20223;-81
2022/11/15 03:38:16;;;;;;;83.40;47.72;;;4.00;99.90;;;;;;5068777;28;20240;-84
2022/11/15 03:40:53;;;;;;;81.78;45.65;;;4.00;99.90;;;;;;5040872;28;20244;-82
2022/11/15 03:43:51;;;;;;;84.90;46.00;;;4.00;99.90;;;;;;5040988;28;20213;-84
2022/11/15 03:46:33;;;;;;;81.00;48.30;;;4.00;99.90;;;;;;5033359;28;20267;-83
2022/11/15 03:49:15;;;;;;;75.82;47.08;;;4.00;99.90;;;;;;5041177;28;20660;-82
2022/11/15 03:51:42;;;;;;;86.60;50.78;;;3.90;99.90;;;;;;5042656;28;20255;-82
2022/11/15 03:54:11;;;;;;;81.30;46.13;;;3.80;99.90;;;;;;5028973;28;20300;-83
2022/11/15 03:56:39;;;;;;;78.20;47.05;;;3.80;99.90;;;;;;5041870;28;20201;-83
2022/11/15 03:59:05;;;;;;;69.55;45.58;;;3.90;99.90;;;;;;5041847;28;20243;-82
2022/11/15 04:01:33;;;;;;;77.50;47.45;;;3.90;99.90;;;;;;5033453;28;20232;-82
2022/11/15 04:04:01;;;;;;;80.20;46.50;;;3.90;99.90;;;;;;5043648;28;20209;-83
2022/11/15 04:06:28;;;;;;;81.10;50.03;;;3.80;99.90;;;;;;5041696;28;20453;-82
2022/11/15 04:08:55;;;;;;;72.60;47.95;;;3.90;99.90;;;;;;5042854;28;20290;-82
2022/11/15 04:11:22;;;;;;;76.80;48.08;;;3.90;99.90;;;;;;5039860;28;20444;-82
2022/11/15 04:13:49;;;;;;;79.80;48.13;;;3.90;99.90;;;;;;5042325;28;20209;-84
2022/11/15 04:16:16;;;;;;;78.43;47.35;;;3.90;99.90;;;;;;5040006;28;20217;-84
2022/11/15 04:18:44;;;;;;;78.80;47.05;;;3.90;99.90;;;;;;5033442;28;20327;-84
2022/11/15 04:26:35;;;;;;;84.93;50.70;;;3.70;99.90;;;;;;5051881;28;20203;-83
2022/11/15 04:31:48;;;;;;;75.47;48.70;;;3.70;99.90;;;;;;5046215;28;20201;-84
2022/11/15 04:34:15;;;;;;;79.18;49.17;;;3.80;99.90;;;;;;5046350;28;20216;-85
2022/11/15 04:39:30;;;;;;;88.70;50.65;;;3.80;99.90;;;;;;5045166;28;20243;-84
2022/11/15 04:41:57;;;;;;;89.78;51.92;;;3.80;99.90;;;;;;5053679;28;20220;-84
2022/11/15 04:44:24;;;;;;;89.43;50.88;;;3.80;99.90;;;;;;5044689;28;20523;-84
2022/11/15 04:46:51;;;;;;;93.05;52.58;;;3.70;99.90;;;;;;5046396;28;20251;-83
2022/11/15 04:49:18;;;;;;;79.28;49.80;;;3.70;99.90;;;;;;5047829;28;20217;-83
2022/11/15 04:51:45;;;;;;;88.63;49.40;;;3.70;99.90;;;;;;5046907;28;20496;-87
2022/11/15 04:54:12;;;;;;;85.35;48.75;;;3.70;99.90;;;;;;5044651;28;20255;-83
2022/11/15 04:56:39;;;;;;;84.93;50.72;;;3.60;99.90;;;;;;5044423;28;20201;-84
2022/11/15 04:59:06;;;;;;;78.10;50.08;;;3.60;99.90;;;;;;5043226;28;20225;-83
2022/11/15 05:01:33;;;;;;;90.40;49.28;;;3.60;99.90;;;;;;5041966;28;20271;-84
2022/11/15 05:04:20;;;;;;;79.07;49.63;;;3.70;99.90;;;;;;5045755;28;20234;-83
2022/11/15 05:06:49;;;;;;;78.38;49.53;;;3.80;99.90;;;;;;5042777;28;20205;-83
2022/11/15 05:09:18;;;;;;;84.18;49.45;;;4.00;99.90;;;;;;5034963;28;20209;-83
2022/11/15 05:11:46;;;;;;;75.88;50.13;;;4.50;99.90;;;;;;5038866;28;20539;-83
2022/11/15 05:14:14;;;;;;;82.85;46.35;;;4.20;99.90;;;;;;5042648;28;20209;-85
2022/11/15 05:16:42;;;;;;;79.63;50.38;;;4.20;99.90;;;;;;5044710;28;20257;-82
2022/11/15 05:19:09;;;;;;;75.63;48.42;;;4.20;99.90;;;;;;5041132;28;20679;-82
2022/11/15 05:21:37;;;;;;;83.80;49.33;;;4.30;99.90;;;;;;5042214;28;20756;-85
2022/11/15 05:24:04;;;;;;;84.90;48.33;;;4.30;99.90;;;;;;5049485;28;20436;-86
2022/11/15 05:26:32;;;;;;;81.95;50.60;;;4.30;99.90;;;;;;5041383;28;20201;-86
2022/11/15 05:28:59;;;;;;;85.80;52.45;;;4.30;99.90;;;;;;5045133;28;20201;-84
2022/11/15 05:31:27;;;;;;;90.65;50.50;;;4.00;99.90;;;;;;5059954;28;20524;-85
2022/11/15 05:33:55;;;;;;;86.95;52.33;;;4.00;99.90;;;;;;5043341;28;20208;-85
2022/11/15 05:36:32;;;;;;;87.13;50.05;;;4.00;99.90;;;;;;5043414;28;20247;-86
2022/11/15 05:39:00;;;;;;;86.55;53.22;;;4.10;99.90;;;;;;5059671;28;20197;-85
2022/11/15 05:41:36;;;;;;;84.55;50.70;;;4.20;99.90;;;;;;5042128;28;20590;-85
2022/11/15 05:44:07;;;;;;;84.28;48.08;;;4.40;99.90;;;;;;5050261;28;20274;-89
2022/11/15 05:46:36;;;;;;;81.78;52.50;;;4.50;99.90;;;;;;5047934;28;20432;-86
2022/11/15 05:49:07;;;;;;;87.20;50.28;;;4.10;99.90;;;;;;5040910;28;20260;-86
2022/11/15 05:51:35;;;;;;;84.75;50.47;;;4.10;99.90;;;;;;5044120;28;20208;-86
2022/11/15 05:54:03;;;;;;;82.90;51.45;;;5.00;99.90;;;;;;5058764;28;20248;-85
2022/11/15 05:56:30;;;;;;;88.90;54.28;;;4.00;99.90;;;;;;5041615;28;20208;-86
2022/11/15 05:58:58;;;;;;;89.65;50.88;;;4.80;99.90;;;;;;5060482;28;20740;-86
2022/11/15 06:01:27;;;;;;;91.35;52.45;;;3.80;99.90;;;;;;5047762;28;20244;-87
2022/11/15 06:03:55;;;;;;;97.57;53.97;;;;;;;;;;5044427;28;20212;-87
2022/11/15 06:06:22;;;;;;;94.22;51.08;;;3.50;99.90;;;;;;5041229;28;20276;-87
2022/11/15 06:08:49;;;;;;;99.95;55.15;;;3.50;99.90;;;;;;5060051;28;20205;-86
2022/11/15 06:11:16;;;;;;;116.55;58.08;;;3.40;99.90;;;;;;5053134;28;20239;-87
2022/11/15 06:13:43;;;;;;;94.28;53.78;;;3.50;99.90;;;;;;5045967;28;20201;-90
2022/11/15 06:16:10;;;;;;;98.22;56.00;;;3.50;99.90;;;;;;5045983;28;20201;-86
2022/11/15 06:18:38;;;;;;;87.97;55.42;;;3.40;99.90;;;;;;5032733;28;20209;-86
2022/11/15 06:21:06;;;;;;;100.32;60.60;;;3.40;99.90;;;;;;5035384;28;20213;-89
2022/11/15 06:23:34;;;;;;;87.90;54.58;;;3.30;99.90;;;;;;5041285;28;20201;-87
2022/11/15 06:26:04;;;;;;;87.95;54.45;;;3.50;99.90;;;;;;5055261;28;20400;-86
2022/11/15 06:28:32;;;;;;;93.07;55.80;;;3.50;99.90;;;;;;5054974;28;20259;-87
2022/11/15 06:31:07;;;;;;;86.80;53.53;;;3.40;99.90;;;;;;5032992;28;20251;-84
2022/11/15 06:33:35;;;;;;;96.63;56.55;;;3.60;99.90;;;;;;5039335;28;20477;-85
2022/11/15 06:36:07;;;;;;;80.88;53.60;;;3.60;99.90;;;;;;5041270;28;20208;-85
2022/11/15 06:38:41;;;;;;;94.30;56.78;;;3.90;99.90;;;;;;5038579;28;20208;-88
2022/11/15 06:41:10;;;;;;;83.97;53.10;;;3.80;99.90;;;;;;5044172;28;20209;-86
2022/11/15 06:43:38;;;;;;;87.25;54.75;;;3.90;99.90;;;;;;5042479;28;20413;-85
2022/11/15 06:46:06;;;;;;;86.10;52.47;;;3.90;99.90;;;;;;5032039;28;20511;-86
2022/11/15 06:48:34;;;;;;;82.07;54.83;;;3.90;99.90;;;;;;5041392;28;20247;-84
2022/11/15 06:51:04;;;;;;;80.55;51.92;;;4.10;99.90;;;;;;5056391;28;20429;-83
2022/11/15 06:53:31;;;;;;;90.88;53.63;;;4.30;99.90;;;;;;5039963;28;20204;-85
2022/11/15 06:56:01;;;;;;;86.90;53.10;;;4.20;99.90;;;;;;5051618;28;20232;-83
2022/11/15 06:58:28;;;;;;;86.82;52.78;;;4.40;99.90;;;;;;5054467;28;20239;-84
2022/11/15 07:01:01;;;;;;;81.47;51.65;;;4.20;99.90;;;;;;5048064;28;20208;-86
2022/11/15 07:03:28;;;;;;;83.63;53.38;;;4.20;99.90;;;;;;5038882;28;20393;-85
2022/11/15 07:05:57;;;;;;;75.32;50.35;;;4.20;99.90;;;;;;5040088;28;20240;-86
2022/11/15 07:08:33;;;;;;;82.88;52.33;;;4.60;99.90;;;;;;5040723;28;20200;-85
2022/11/15 07:11:06;;;;;;;84.53;52.03;;;4.70;99.90;;;;;;5055658;28;20209;-85
2022/11/15 07:13:35;;;;;;;78.78;52.60;;;4.90;99.90;;;;;;5045748;28;20215;-85
2022/11/15 07:16:07;;;;;;;96.85;53.78;;;5.20;99.90;;;;;;5053499;28;20196;-84
2022/11/15 07:18:39;;;;;;;74.72;49.97;;;5.60;99.90;;;;;;5049066;28;20201;-84
2022/11/15 07:21:08;;;;;;;77.00;48.85;;;5.80;99.90;;;;;;5038646;28;20208;-83
2022/11/15 07:23:38;;;;;;;83.80;47.72;;;5.90;99.90;;;;;;5045872;28;20227;-84
2022/11/15 07:26:06;;;;;;;51.08;37.88;;;6.50;99.90;;;;;;5046638;28;20485;-84
2022/11/15 07:28:34;;;;;;;49.60;32.05;;;7.30;99.90;;;;;;5042753;28;20466;-83
2022/11/15 07:31:05;;;;;;;39.35;27.88;;;8.20;99.90;;;;;;5047140;28;20216;-84
2022/11/15 07:33:33;;;;;;;38.05;26.60;;;9.00;99.90;;;;;;5036413;28;20259;-84
2022/11/15 07:36:03;;;;;;;41.85;25.90;;;9.30;99.90;;;;;;5037984;28;20224;-84
2022/11/15 07:38:30;;;;;;;39.47;24.98;;;9.90;99.90;;;;;;5042275;28;20283;-84
2022/11/15 07:41:02;;;;;;;36.78;24.50;;;10.70;99.90;;;;;;5043349;28;20209;-81
2022/11/15 07:43:30;;;;;;;37.22;24.77;;;11.40;99.90;;;;;;5051193;28;20250;-86
2022/11/15 07:45:57;;;;;;;35.58;25.70;;;11.60;99.90;;;;;;5055080;28;20185;-85
2022/11/15 07:48:25;;;;;;;37.22;23.77;;;11.30;99.90;;;;;;5063379;28;20243;-87
2022/11/15 07:51:14;;;;;;;33.20;23.63;;;10.30;99.90;;;;;;5051783;28;20219;-84
2022/11/15 07:53:43;;;;;;;36.15;25.90;;;9.30;99.90;;;;;;5042094;28;20231;-83
2022/11/15 07:56:10;;;;;;;37.35;24.63;;;8.90;99.90;;;;;;5041336;28;20201;-84
2022/11/15 07:58:40;;;;;;;35.30;25.73;;;8.60;99.90;;;;;;5044585;28;20205;-82
2022/11/15 08:01:09;;;;;;;39.78;26.52;;;8.20;99.90;;;;;;5055881;28;20496;-83
2022/11/15 08:03:37;;;;;;;35.88;25.15;;;7.90;99.90;;;;;;5045190;28;20275;-83
2022/11/15 08:06:04;;;;;;;40.60;26.17;;;8.00;99.90;;;;;;5053082;28;20197;-82
2022/11/15 08:08:31;;;;;;;34.88;24.63;;;7.80;99.90;;;;;;5041529;28;20205;-84
2022/11/15 08:10:59;;;;;;;43.92;28.30;;;7.70;99.90;;;;;;5039575;28;20274;-84
2022/11/15 08:13:25;;;;;;;43.72;28.55;;;7.50;99.90;;;;;;5054557;28;20208;-84
2022/11/15 08:16:00;;;;;;;43.38;31.25;;;7.40;99.90;;;;;;5039190;28;20474;-83
2022/11/15 08:18:27;;;;;;;40.80;27.98;;;7.30;99.90;;;;;;5038396;28;20223;-83
2022/11/15 08:20:59;;;;;;;48.03;30.08;;;7.10;99.90;;;;;;5043456;28;20279;-83
2022/11/15 08:23:27;;;;;;;43.08;29.98;;;7.00;99.90;;;;;;5043509;28;20225;-82
2022/11/15 08:26:00;;;;;;;48.92;31.20;;;7.20;99.90;;;;;;5044248;28;20484;-83
2022/11/15 08:28:28;;;;;;;54.58;31.63;;;7.40;99.90;;;;;;5038437;28;20233;-83
2022/11/15 08:30:56;;;;;;;44.72;31.63;;;7.40;99.90;;;;;;5035078;28;20212;-82
2022/11/15 08:33:24;;;;;;;40.92;28.55;;;7.70;99.90;;;;;;5043819;28;20528;-84
2022/11/15 08:35:51;;;;;;;39.33;27.02;;;8.40;99.90;;;;;;5043286;28;20271;-83
2022/11/15 08:38:18;;;;;;;36.67;24.95;;;9.40;99.90;;;;;;5044084;28;20254;-84
2022/11/15 08:40:45;;;;;;;38.88;26.35;;;10.80;99.90;;;;;;5042854;28;20539;-84
2022/11/15 08:43:12;;;;;;;33.88;22.17;;;11.50;99.90;;;;;;5042345;28;20537;-83
2022/11/15 08:45:39;;;;;;;40.00;24.65;;;12.40;99.90;;;;;;5057732;28;20535;-85
2022/11/15 08:48:06;;;;;;;36.45;22.52;;;11.90;99.90;;;;;;5041249;28;20193;-81
2022/11/15 08:50:33;;;;;;;34.00;21.73;;;11.40;99.90;;;;;;5041935;28;20236;-83
2022/11/15 08:53:06;;;;;;;33.92;25.48;;;11.40;99.90;;;;;;5024844;28;20500;-84
2022/11/15 08:55:36;;;;;;;36.72;24.83;;;11.30;99.90;;;;;;5042457;28;20542;-84
2022/11/15 08:58:04;;;;;;;37.33;25.10;;;11.40;99.90;;;;;;5058114;28;20575;-83
2022/11/15 09:00:33;;;;;;;37.13;23.52;;;11.10;99.90;;;;;;5043157;28;20380;-85
2022/11/15 09:03:03;;;;;;;33.38;24.92;;;10.90;99.90;;;;;;5047365;28;20541;-84
2022/11/15 09:05:30;;;;;;;33.88;24.27;;;10.70;99.90;;;;;;5033873;28;20216;-83
2022/11/15 09:07:58;;;;;;;36.35;24.10;;;10.80;99.90;;;;;;5042177;28;20197;-84
2022/11/15 09:10:26;;;;;;;37.03;24.90;;;10.70;99.90;;;;;;5050662;28;20204;-84
2022/11/15 09:13:01;;;;;;;40.17;23.50;;;10.70;99.90;;;;;;5053832;28;20260;-82
2022/11/15 09:15:29;;;;;;;34.03;21.63;;;10.70;99.90;;;;;;5049691;28;20284;-81
2022/11/15 09:17:59;;;;;;;32.83;20.88;;;10.40;99.90;;;;;;5031203;28;20264;-86
2022/11/15 09:20:27;;;;;;;30.63;23.73;;;10.50;99.90;;;;;;5067134;28;20272;-85
2022/11/15 09:22:54;;;;;;;29.23;19.38;;;10.50;99.90;;;;;;5039816;28;20235;-83
2022/11/15 09:25:21;;;;;;;37.13;22.00;;;10.60;99.90;;;;;;5049419;28;20275;-84
2022/11/15 09:27:48;;;;;;;31.65;21.65;;;10.80;99.90;;;;;;5051352;28;20212;-84
2022/11/15 09:30:16;;;;;;;25.23;19.92;;;10.90;99.90;;;;;;5045311;28;20209;-83
2022/11/15 09:32:43;;;;;;;31.65;22.42;;;11.00;99.90;;;;;;5042133;28;20222;-85
2022/11/15 09:35:11;;;;;;;26.23;19.33;;;11.00;99.90;;;;;;5037699;28;20505;-82
2022/11/15 09:37:39;;;;;;;31.55;19.20;;;11.10;99.90;;;;;;5040544;28;20231;-82
2022/11/15 09:40:11;;;;;;;29.17;21.45;;;11.10;99.90;;;;;;5038198;28;20247;-81
2022/11/15 09:43:10;;;;;;;30.52;19.85;;;11.30;99.90;;;;;;5031355;28;20244;-83
2022/11/15 09:46:02;;;;;;;29.60;19.20;;;11.40;99.90;;;;;;5040122;28;20200;-81
2022/11/15 09:49:10;;;;;;;28.83;19.67;;;11.50;99.90;;;;;;5040702;28;20240;-83
2022/11/15 09:51:50;;;;;;;35.35;21.90;;;11.30;99.90;;;;;;5021115;28;20445;-82
2022/11/15 09:54:36;;;;;;;23.35;18.15;;;11.20;99.90;;;;;;5021289;28;20260;-82
2022/11/15 09:57:31;;;;;;;30.05;21.33;;;11.50;99.90;;;;;;5039076;28;20279;-83
2022/11/15 10:00:31;;;;;;;31.00;21.42;;;11.70;99.90;;;;;;5039704;28;20421;-82
2022/11/15 10:03:30;;;;;;;32.83;21.38;;;11.80;99.90;;;;;;5039129;28;20213;-83
2022/11/15 10:06:02;;;;;;;33.55;21.38;;;12.00;99.90;;;;;;5042066;28;20205;-82
2022/11/15 10:08:38;;;;;;;26.90;19.02;;;11.80;99.90;;;;;;5028584;28;20209;-83
2022/11/15 10:11:18;;;;;;;30.10;17.40;;;11.80;99.90;;;;;;5051515;28;20255;-83
2022/11/15 10:14:19;;;;;;;23.75;17.02;;;11.90;99.90;;;;;;5031876;28;20481;-84
2022/11/15 10:16:50;;;;;;;24.17;17.45;;;12.00;99.90;;;;;;5040074;28;20459;-83
2022/11/15 10:19:58;;;;;;;26.23;19.17;;;12.00;99.90;;;;;;5033730;28;20385;-84
2022/11/15 10:22:51;;;;;;;32.00;19.08;;;11.90;99.90;;;;;;5044049;28;20267;-84
2022/11/15 10:25:33;;;;;;;29.48;18.90;;;12.20;99.90;;;;;;5026671;28;20205;-85
2022/11/15 10:28:29;;;;;;;24.40;18.27;;;12.10;99.90;;;;;;5046176;28;20192;-83
2022/11/15 10:30:59;;;;;;;25.90;19.23;;;11.80;99.90;;;;;;5031924;28;20493;-84
2022/11/15 10:33:33;;;;;;;27.08;18.40;;;11.80;99.90;;;;;;5044055;28;20553;-84
2022/11/15 10:36:09;;;;;;;30.70;20.02;;;12.00;99.90;;;;;;5043729;28;20212;-86
2022/11/15 10:38:56;;;;;;;30.17;21.60;;;12.00;99.90;;;;;;5042397;28;20208;-85
2022/11/15 10:41:36;;;;;;;31.70;21.77;;;12.10;99.90;;;;;;5043318;28;20577;-84
2022/11/15 10:44:30;;;;;;;28.05;20.63;;;12.00;99.90;;;;;;5055198;28;20501;-83
2022/11/15 10:47:02;;;;;;;30.83;20.17;;;11.90;99.90;;;;;;5046069;28;20204;-84
2022/11/15 10:49:32;;;;;;;28.50;19.77;;;12.20;99.90;;;;;;5041637;28;20201;-85
2022/11/15 10:52:04;;;;;;;34.88;18.60;;;12.10;99.90;;;;;;5045908;28;20257;-84
2022/11/15 10:54:49;;;;;;;27.95;19.13;;;12.30;99.90;;;;;;5062221;28;20243;-84
2022/11/15 10:57:18;;;;;;;25.52;17.52;;;12.20;99.90;;;;;;5041416;28;20208;-84
2022/11/15 10:59:55;;;;;;;24.70;18.30;;;12.20;99.90;;;;;;5043649;28;20201;-85
2022/11/15 11:02:30;;;;;;;28.30;18.45;;;12.30;99.90;;;;;;5040274;28;20220;-85
2022/11/15 11:04:58;;;;;;;21.85;16.20;;;12.40;99.90;;;;;;5050164;28;20209;-82
2022/11/15 11:07:33;;;;;;;23.63;14.82;;;12.40;99.90;;;;;;5040953;28;20220;-84
2022/11/15 11:10:22;;;;;;;23.67;15.00;;;12.50;99.90;;;;;;5028181;28;20542;-84
2022/11/15 11:13:21;;;;;;;16.60;13.27;;;12.30;99.90;;;;;;5040164;28;20204;-85
2022/11/15 11:15:57;;;;;;;20.52;14.25;;;12.50;99.90;;;;;;5041820;28;20208;-85
2022/11/15 11:18:37;;;;;;;17.63;13.23;;;12.70;99.90;;;;;;5032928;28;20193;-85
2022/11/15 11:21:14;;;;;;;18.98;13.40;;;12.30;99.90;;;;;;5041841;28;20203;-85
2022/11/15 11:24:13;;;;;;;21.63;14.38;;;12.20;99.90;;;;;;5035962;28;20227;-83
2022/11/15 11:26:58;;;;;;;21.27;13.07;;;12.30;99.90;;;;;;5057251;28;20424;-85
2022/11/15 11:29:55;;;;;;;16.58;11.82;;;12.60;99.90;;;;;;5041797;28;20509;-85
2022/11/15 11:33:05;;;;;;;21.17;14.40;;;12.80;99.90;;;;;;5041028;28;20219;-83
2022/11/15 11:35:55;;;;;;;16.42;12.75;;;12.80;99.90;;;;;;5042157;28;20224;-84
2022/11/15 11:38:43;;;;;;;16.77;12.57;;;12.70;99.90;;;;;;5025059;28;20217;-85
2022/11/15 11:41:40;;;;;;;17.30;11.55;;;12.50;99.90;;;;;;5031967;28;20216;-82
2022/11/15 11:44:17;;;;;;;13.18;10.57;;;12.80;99.90;;;;;;5061542;28;20212;-85
2022/11/15 11:46:49;;;;;;;15.13;10.77;;;12.80;99.90;;;;;;5043708;28;20468;-84
2022/11/15 11:49:29;;;;;;;19.55;12.45;;;12.80;99.90;;;;;;5033519;28;20272;-83
2022/11/15 11:52:27;;;;;;;18.55;13.25;;;12.50;99.90;;;;;;5044443;28;20196;-84
2022/11/15 11:55:19;;;;;;;23.42;14.65;;;12.50;99.90;;;;;;5057870;28;20197;-86
2022/11/15 11:58:02;;;;;;;23.50;14.50;;;12.50;99.90;;;;;;5075240;28;20200;-85
2022/11/15 12:00:35;;;;;;;14.43;12.18;;;12.40;99.90;;;;;;5037251;28;20268;-84
2022/11/15 12:03:27;;;;;;;18.23;12.95;;;12.30;99.90;;;;;;5046359;28;20221;-85
2022/11/15 12:06:02;;;;;;;19.48;13.77;;;12.50;99.90;;;;;;5061596;28;20219;-83
2022/11/15 12:08:37;;;;;;;15.90;9.50;;;12.50;99.90;;;;;;5046107;28;20519;-85
2022/11/15 12:11:29;;;;;;;18.08;11.50;;;12.70;99.90;;;;;;5044793;28;20241;-86
2022/11/15 12:14:00;;;;;;;17.80;11.95;;;12.70;99.90;;;;;;5049038;28;20205;-87
2022/11/15 12:16:30;;;;;;;17.83;12.15;;;12.80;99.90;;;;;;5064218;28;20228;-84
2022/11/15 12:19:02;;;;;;;12.40;10.43;;;12.90;99.90;;;;;;5046016;28;20231;-85
2022/11/15 12:21:54;;;;;;;19.75;10.43;;;13.00;99.90;;;;;;5059971;28;20197;-85
2022/11/15 12:24:31;;;;;;;13.38;10.15;;;13.00;99.90;;;;;;5059523;28;20471;-86
2022/11/15 12:27:17;;;;;;;13.50;9.15;;;13.10;99.90;;;;;;5029467;28;20205;-85
2022/11/15 12:29:56;;;;;;;16.27;11.50;;;13.20;99.90;;;;;;5044529;28;20198;-85
2022/11/15 12:32:33;;;;;;;16.10;10.85;;;12.80;99.90;;;;;;5043167;28;20200;-85
2022/11/15 12:35:05;;;;;;;22.95;10.88;;;12.90;99.90;;;;;;5059514;28;20227;-84
2022/11/15 12:37:43;;;;;;;17.90;11.77;;;13.00;99.90;;;;;;5058679;28;20188;-85
2022/11/15 12:40:26;;;;;;;14.45;11.13;;;13.10;99.90;;;;;;5044881;28;20201;-85
2022/11/15 12:43:38;;;;;;;18.23;13.60;;;13.20;99.90;;;;;;5045883;28;20267;-84
2022/11/15 12:46:11;;;;;;;15.25;11.13;;;13.20;99.90;;;;;;5045807;28;20240;-85
2022/11/15 12:48:38;;;;;;;16.70;10.75;;;13.30;99.90;;;;;;5043240;28;20394;-84
2022/11/15 12:51:05;;;;;;;16.30;10.00;;;13.20;99.90;;;;;;5044273;28;20259;-84
2022/11/15 12:53:34;;;;;;;16.13;11.40;;;13.20;99.90;;;;;;5029600;28;20297;-84
2022/11/15 12:56:17;;;;;;;15.70;11.88;;;13.20;99.90;;;;;;5034595;28;20252;-86
2022/11/15 12:59:02;;;;;;;17.45;11.38;;;13.00;99.90;;;;;;5026188;28;20731;-85
2022/11/15 13:01:35;;;;;;;13.45;11.13;;;13.00;99.90;;;;;;5030989;28;20213;-86
2022/11/15 13:04:11;;;;;;;22.13;12.05;;;13.10;99.90;;;;;;5037277;28;20241;-87
2022/11/15 13:06:49;;;;;;;14.45;11.20;;;12.90;99.90;;;;;;5041195;28;20263;-85
2022/11/15 13:09:29;;;;;;;21.15;11.00;;;13.00;99.90;;;;;;5043584;28;20211;-85
2022/11/15 13:11:58;;;;;;;15.50;11.63;;;12.90;99.90;;;;;;5035794;28;20216;-85
2022/11/15 13:14:41;;;;;;;17.05;11.77;;;12.90;99.90;;;;;;5040943;28;20235;-85
2022/11/15 13:17:33;;;;;;;13.23;11.70;;;12.90;99.90;;;;;;5045978;28;20204;-85
2022/11/15 13:20:07;;;;;;;19.20;14.40;;;12.90;99.90;;;;;;5045091;28;20208;-84
2022/11/15 13:23:06;;;;;;;15.48;12.13;;;12.90;99.90;;;;;;5043832;28;20332;-85